Time;durP1;ratioP1;P1;durP2;ratioP2;P2;SDS_P1;SDS_P2;PMS_P1;PMS_P2;Temp;Humidity;BMP_temperature;BMP_pressure;BME280_temperature;BME280_humidity;BME280_pressure;Samples;Min_cycle;Max_cycle;Signal;HPM_P1;HPM_P2
2023/07/05 01:57:36;;;;;;;6.90;5.00;;;;;;;24.51;60.32;99376.46;80070;1304;3013185;-62
2023/07/05 02:00:16;;;;;;;13.20;5.40;;;;;;;24.49;60.10;99378.60;78905;1304;3011508;-63
2023/07/05 02:02:53;;;;;;;11.70;4.40;;;;;;;24.50;59.95;99378.64;77778;1303;3050141;-62
2023/07/05 02:05:21;;;;;;;5.30;4.70;;;;;;;24.49;59.82;99378.67;79032;1301;3012828;-63
2023/07/05 02:07:49;;;;;;;5.10;4.70;;;;;;;24.44;59.91;99379.83;77750;1304;3053926;-61
2023/07/05 02:10:17;;;;;;;7.20;4.70;;;;;;;24.42;60.12;99380.28;77137;1305;5560735;-62
2023/07/05 02:12:44;;;;;;;9.80;5.60;;;;;;;24.41;60.47;99384.06;79230;1298;3012886;-62
2023/07/05 02:15:13;;;;;;;10.00;5.70;;;;;;;24.39;61.01;99384.33;77933;1303;3048382;-61
2023/07/05 02:17:40;;;;;;;10.10;5.70;;;;;;;24.40;61.09;99382.23;79242;1300;3013614;-62
2023/07/05 02:20:08;;;;;;;8.60;5.50;;;;;;;24.41;60.78;99386.50;79311;1295;3011892;-64
2023/07/05 02:22:36;;;;;;;11.20;5.90;;;;;;;24.40;61.30;99383.93;78109;1300;3052768;-62
2023/07/05 02:25:03;;;;;;;9.80;6.00;;;;;;;24.39;61.28;99382.14;79370;1300;3012906;-63
2023/07/05 02:27:31;;;;;;;8.60;5.20;;;;;;;24.37;61.42;99376.42;79334;1294;3011673;-63
2023/07/05 02:29:59;;;;;;;9.30;5.90;;;;;;;24.36;61.40;99379.29;78087;1299;3048695;-61
2023/07/05 02:32:26;;;;;;;13.80;5.90;;;;;;;24.37;61.33;99382.19;79176;1295;3013763;-62
2023/07/05 02:34:52;;;;;;;12.90;6.00;;;;;;;24.37;61.31;99386.98;79292;1300;3011831;-63
2023/07/05 02:37:22;;;;;;;6.60;5.70;;;;;;;24.38;61.57;99386.04;78281;1294;3053260;-62
2023/07/05 02:39:53;;;;;;;6.70;5.40;;;;;;;24.39;61.82;99389.48;79375;1299;3013472;-63
2023/07/05 02:42:21;;;;;;;8.50;6.40;;;;;;;24.39;62.02;99391.02;78154;1299;3057126;-60
2023/07/05 02:44:48;;;;;;;16.00;6.80;;;;;;;24.33;63.04;99390.80;79401;1298;3013528;-64
2023/07/05 02:47:18;;;;;;;10.80;6.50;;;;;;;24.32;63.27;99394.80;79276;1295;3011743;-64
2023/07/05 02:49:46;;;;;;;8.20;6.30;;;;;;;24.29;63.82;99393.29;78103;1300;3053606;-63
2023/07/05 02:52:12;;;;;;;8.40;6.40;;;;;;;24.32;63.13;99394.10;79334;1300;3013000;-63
2023/07/05 02:54:39;;;;;;;12.50;6.20;;;;;;;24.35;62.88;99391.36;79415;1299;3011826;-62
2023/07/05 02:57:07;;;;;;;12.20;6.60;;;;;;;24.40;62.78;99393.06;78138;1295;3026455;-61
2023/07/05 02:59:35;;;;;;;8.30;6.40;;;;;;;24.47;62.60;99393.89;79443;1298;3018888;-63
2023/07/05 03:02:01;;;;;;;10.80;6.90;;;;;;;24.51;63.07;99390.77;79441;1295;3011760;-62
2023/07/05 03:04:30;;;;;;;11.40;7.30;;;;;;;24.52;63.01;99392.94;78298;1297;3052057;-60
2023/07/05 03:06:57;;;;;;;14.30;6.90;;;;;;;24.51;63.12;99393.65;79511;1297;3020496;-61
2023/07/05 03:09:24;;;;;;;13.80;6.60;;;;;;;24.50;63.33;99392.15;79419;1299;3011728;-62
2023/07/05 03:11:52;;;;;;;10.50;7.40;;;;;;;24.51;63.23;99391.84;78219;1298;3028720;-62
2023/07/05 03:14:18;;;;;;;11.20;6.80;;;;;;;24.52;63.43;99393.42;79404;1300;3012844;-62
2023/07/05 03:16:45;;;;;;;9.20;6.80;;;;;;;24.56;63.04;99390.27;79531;1295;3011777;-61
2023/07/05 03:19:13;;;;;;;10.80;6.30;;;;;;;24.59;63.32;99390.23;78175;1300;3028457;-62
2023/07/05 03:21:43;;;;;;;10.00;7.10;;;;;;;24.67;62.99;99387.78;79433;1298;3013197;-61
2023/07/05 03:24:12;;;;;;;11.70;6.30;;;;;;;24.73;62.67;99387.91;78875;1295;3011569;-62
2023/07/05 03:26:39;;;;;;;12.90;6.90;;;;;;;24.78;62.89;99385.00;79438;1298;3013854;-63
2023/07/05 03:29:06;;;;;;;11.70;6.90;;;;;;;24.84;63.01;99384.79;79278;1294;3011950;-63
2023/07/05 03:31:34;;;;;;;13.00;7.10;;;;;;;24.90;63.00;99385.15;78216;1295;3053351;-63
2023/07/05 03:34:00;;;;;;;13.60;6.50;;;;;;;24.95;62.85;99381.81;79510;1300;3019303;-61
2023/07/05 03:36:27;;;;;;;10.20;6.50;;;;;;;25.02;62.75;99383.91;79391;1300;3011688;-63
2023/07/05 03:38:55;;;;;;;9.00;7.00;;;;;;;25.07;62.80;99384.98;78219;1298;3027792;-61
2023/07/05 03:41:24;;;;;;;14.40;6.70;;;;;;;25.11;62.92;99389.02;79503;1295;3011870;-64
2023/07/05 03:43:57;;;;;;;10.00;6.70;;;;;;;25.16;62.75;99389.32;79534;1295;3011813;-63
2023/07/05 03:46:25;;;;;;;;;;;;;;;25.19;62.95;99384.80;78178;1301;3053070;-62
2023/07/05 03:48:51;;;;;;;12.60;6.60;;;;;;;25.18;62.56;99387.60;79451;1300;3014479;-62
2023/07/05 03:51:20;;;;;;;14.00;6.50;;;;;;;25.23;62.47;99391.84;79417;1300;3011675;-63
2023/07/05 03:53:50;;;;;;;13.30;6.80;;;;;;;25.28;62.43;99390.48;78259;1300;3067984;-62
2023/07/05 03:56:17;;;;;;;14.80;7.30;;;;;;;25.35;62.38;99391.33;79473;1296;3014178;-62
2023/07/05 03:58:44;;;;;;;12.00;7.40;;;;;;;25.40;62.40;99387.75;79397;1295;3011570;-62
2023/07/05 04:01:15;;;;;;;12.60;7.30;;;;;;;25.47;62.05;99388.72;78166;1295;3052103;-62
2023/07/05 04:03:42;;;;;;;11.90;6.80;;;;;;;25.53;62.33;99386.71;79381;1295;3012890;-63
2023/07/05 04:06:10;;;;;;;10.90;7.00;;;;;;;25.60;61.36;99387.48;78265;1297;3026642;-62
2023/07/05 04:08:37;;;;;;;11.70;6.30;;;;;;;25.67;61.53;99386.75;79484;1297;3013259;-63
2023/07/05 04:11:04;;;;;;;18.00;7.50;;;;;;;25.70;60.88;99388.89;79501;1297;3011755;-64
2023/07/05 04:13:32;;;;;;;9.20;6.60;;;;;;;25.78;60.74;99382.84;78198;1295;3056626;-63
2023/07/05 04:16:03;;;;;;;12.70;7.20;;;;;;;25.87;60.67;99385.91;79530;1296;3013556;-65
2023/07/05 04:18:32;;;;;;;15.20;7.10;;;;;;;25.94;60.33;99384.98;78255;1297;3050217;-61
2023/07/05 04:20:59;;;;;;;12.50;6.20;;;;;;;26.02;59.49;99385.31;82095;1297;3013851;-62
2023/07/05 04:23:25;;;;;;;12.20;6.00;;;;;;;26.09;58.69;99386.40;82068;1297;3011235;-63
2023/07/05 04:26:11;;;;;;;8.50;6.00;;;;;;;26.16;58.67;99380.77;80828;1294;3049490;-62
2023/07/05 04:28:40;;;;;;;10.70;6.30;;;;;;;26.27;57.92;99382.39;80857;1294;3056744;-62
2023/07/05 04:31:09;;;;;;;8.30;5.90;;;;;;;26.38;57.36;99382.38;82111;1293;3012316;-63
2023/07/05 04:33:38;;;;;;;18.20;6.10;;;;;;;26.47;56.87;99383.67;81562;1295;3011605;-62
2023/07/05 04:36:05;;;;;;;10.00;6.00;;;;;;;26.54;56.43;99380.92;82136;1297;3018282;-62
2023/07/05 04:38:31;;;;;;;14.80;6.30;;;;;;;26.61;56.02;99382.70;82124;1294;3011257;-63
2023/07/05 04:41:00;;;;;;;8.50;5.90;;;;;;;26.69;56.15;99385.54;80831;1295;3026810;-62
2023/07/05 04:43:26;;;;;;;13.90;6.90;;;;;;;26.79;56.22;99387.13;82085;1295;3018743;-62
2023/07/05 04:45:55;;;;;;;15.00;7.00;;;;;;;26.86;56.13;99383.54;82081;1295;3011198;-63
2023/07/05 04:48:28;;;;;;;13.00;6.90;;;;;;;26.91;56.19;99390.73;80820;1297;3052273;-63
2023/07/05 04:50:55;;;;;;;17.30;6.80;;;;;;;26.97;56.10;99387.98;82088;1294;3011416;-64
2023/07/05 04:53:24;;;;;;;10.40;6.40;;;;;;;27.06;56.18;99391.70;80842;1294;3025923;-63
2023/07/05 04:55:52;;;;;;;11.10;6.20;;;;;;;27.13;55.43;99390.52;82144;1297;3012453;-62
2023/07/05 04:58:21;;;;;;;14.10;6.50;;;;;;;27.21;54.83;99396.02;81589;1294;3011445;-62
2023/07/05 05:00:51;;;;;;;14.60;5.90;;;;;;;27.27;54.54;99397.49;82119;1293;3012706;-65
2023/07/05 05:03:22;;;;;;;14.90;5.90;;;;;;;27.35;54.34;99397.42;80822;1295;3049381;-62
2023/07/05 05:05:51;;;;;;;14.30;6.30;;;;;;;27.43;54.01;99397.63;82116;1294;3011403;-63
2023/07/05 05:08:20;;;;;;;9.30;5.90;;;;;;;27.51;54.12;99398.14;80811;1297;3049733;-61
2023/07/05 05:10:54;;;;;;;12.50;6.10;;;;;;;27.62;53.92;99398.61;82051;1295;3011347;-63
2023/07/05 05:13:23;;;;;;;10.30;6.00;;;;;;;27.68;53.40;99398.98;80839;1295;3052956;-63
2023/07/05 05:15:50;;;;;;;15.30;5.60;;;;;;;27.74;53.13;99402.68;82125;1294;3012348;-62
2023/07/05 05:18:17;;;;;;;9.10;5.70;;;;;;;27.80;52.86;99401.48;82083;1296;3011266;-63
2023/07/05 05:20:45;;;;;;;19.60;6.30;;;;;;;27.86;52.72;99402.48;80819;1295;3026494;-63
2023/07/05 05:23:11;;;;;;;11.50;6.40;;;;;;;27.89;52.41;99401.90;82083;1295;3012831;-63
2023/07/05 05:25:44;;;;;;;11.10;6.70;;;;;;;27.95;52.52;99403.64;82066;1295;3011263;-64
2023/07/05 05:28:13;;;;;;;14.50;5.70;;;;;;;28.04;52.07;99401.05;80854;1296;3052944;-62
2023/07/05 05:30:40;;;;;;;12.30;6.00;;;;;;;28.10;51.80;99403.75;82085;1293;3012603;-62
2023/07/05 05:33:07;;;;;;;13.80;6.70;;;;;;;28.12;52.20;99408.19;82107;1295;3011226;-61
2023/07/05 05:35:35;;;;;;;11.30;5.90;;;;;;;28.19;52.16;99410.30;80867;1294;3049240;-63
2023/07/05 05:38:02;;;;;;;15.10;5.50;;;;;;;28.28;51.82;99407.14;82130;1295;3012726;-63
2023/07/05 05:40:31;;;;;;;15.40;5.90;;;;;;;28.35;51.45;99404.37;82082;1295;3011499;-64
2023/07/05 05:42:59;;;;;;;12.60;5.70;;;;;;;28.38;51.51;99400.00;80842;1295;3054287;-62
2023/07/05 05:45:26;;;;;;;10.10;5.50;;;;;;;28.45;51.08;99399.31;82151;1294;3012748;-63
2023/07/05 05:47:53;;;;;;;10.40;5.30;;;;;;;28.53;50.04;99397.48;82085;1294;3011462;-63
2023/07/05 05:50:22;;;;;;;13.30;5.00;;;;;;;28.58;49.94;99396.25;80831;1295;3026089;-64
2023/07/05 05:52:49;;;;;;;9.40;5.10;;;;;;;28.66;49.70;99397.30;82105;1294;3011113;-62
2023/07/05 05:55:16;;;;;;;9.80;5.50;;;;;;;28.71;49.52;99398.20;82111;1295;3011401;-63
2023/07/05 05:57:44;;;;;;;13.90;5.60;;;;;;;28.79;49.49;99398.36;80849;1297;3050535;-64
2023/07/05 06:00:11;;;;;;;8.60;4.40;;;;;;;28.84;49.23;99400.19;82111;1297;3017875;-62
2023/07/05 06:02:38;;;;;;;7.10;4.90;;;;;;;28.94;48.60;99397.69;82107;1295;3011348;-62
2023/07/05 06:05:08;;;;;;;10.20;5.00;;;;;;;29.03;48.46;99394.92;80840;1296;3049351;-63
2023/07/05 06:07:34;;;;;;;6.70;4.70;;;;;;;29.10;47.74;99395.77;82080;1294;3011382;-63
2023/07/05 06:10:01;;;;;;;11.60;4.90;;;;;;;29.14;47.36;99391.14;82117;1295;3011351;-64
2023/07/05 06:12:29;;;;;;;6.70;5.20;;;;;;;29.18;48.15;99395.13;80826;1297;3052143;-61
2023/07/05 06:14:56;;;;;;;7.40;5.20;;;;;;;29.24;47.86;99398.70;82103;1295;3012853;-62
2023/07/05 06:17:22;;;;;;;9.20;5.10;;;;;;;29.29;47.31;99397.98;82070;1295;3011385;-62
2023/07/05 06:19:50;;;;;;;6.60;5.00;;;;;;;29.33;47.23;99398.59;80825;1295;3026081;-62
2023/07/05 06:22:17;;;;;;;8.60;5.20;;;;;;;29.38;46.93;99397.14;82120;1295;3018862;-61
2023/07/05 06:24:44;;;;;;;8.60;5.00;;;;;;;29.45;46.61;99394.77;82087;1296;3011172;-61
2023/07/05 06:27:13;;;;;;;9.30;4.90;;;;;;;29.54;46.92;99391.08;80802;1297;3051607;-62
2023/07/05 06:29:39;;;;;;;11.10;5.30;;;;;;;29.62;46.47;99388.19;81875;1298;3018346;-62
2023/07/05 06:32:06;;;;;;;11.80;5.20;;;;;;;29.69;46.57;99387.39;82089;1295;3011382;-61
2023/07/05 06:34:34;;;;;;;11.50;4.90;;;;;;;29.74;46.22;99385.39;80838;1294;3026058;-63
2023/07/05 06:37:01;;;;;;;8.40;4.70;;;;;;;29.82;45.57;99387.95;82077;1294;3012543;-63
2023/07/05 06:39:28;;;;;;;9.60;5.00;;;;;;;29.88;45.31;99385.64;82067;1294;3011199;-62
2023/07/05 06:41:56;;;;;;;6.80;5.10;;;;;;;29.90;45.79;99384.00;80841;1294;3026979;-63
2023/07/05 06:44:22;;;;;;;9.90;5.50;;;;;;;29.94;45.65;99379.83;82100;1294;3013050;-63
2023/07/05 06:46:49;;;;;;;9.60;5.90;;;;;;;29.99;46.06;99387.30;82081;1294;3011233;-63
2023/07/05 06:49:17;;;;;;;12.90;6.20;;;;;;;30.07;45.87;99385.55;80835;1294;3026117;-62
2023/07/05 06:51:44;;;;;;;9.90;5.40;;;;;;;30.16;45.62;99382.09;82119;1295;3013215;-62
2023/07/05 06:54:10;;;;;;;12.30;6.60;;;;;;;30.22;46.02;99380.11;82064;1295;3011307;-64
2023/07/05 06:56:38;;;;;;;8.70;5.30;;;;;;;30.27;45.86;99378.97;80843;1294;3026429;-63
2023/07/05 06:59:04;;;;;;;9.10;5.30;;;;;;;30.31;44.61;99383.14;82116;1296;3012595;-63
2023/07/05 07:01:32;;;;;;;9.40;5.50;;;;;;;30.40;44.85;99384.23;82118;1295;3011242;-64
2023/07/05 07:04:05;;;;;;;13.30;5.80;;;;;;;30.47;44.96;99383.88;80826;1294;3048946;-63
2023/07/05 07:06:33;;;;;;;12.40;5.80;;;;;;;30.52;44.90;99381.23;82085;1294;3011328;-62
2023/07/05 07:09:04;;;;;;;10.10;5.30;;;;;;;30.62;45.24;99377.25;80838;1297;3048591;-63
2023/07/05 07:11:32;;;;;;;12.20;5.70;;;;;;;30.69;44.94;99378.09;82111;1294;3011431;-63
2023/07/05 07:14:00;;;;;;;8.30;5.60;;;;;;;30.80;44.36;99375.69;80851;1294;3052766;-62
2023/07/05 07:16:26;;;;;;;8.50;6.10;;;;;;;30.89;43.98;99372.10;82095;1295;3013034;-63
2023/07/05 07:18:55;;;;;;;13.10;6.60;;;;;;;30.97;44.23;99369.59;82109;1294;3011216;-63
2023/07/05 07:21:23;;;;;;;18.80;7.10;;;;;;;30.97;44.55;99373.88;80840;1294;3048999;-62
2023/07/05 07:23:51;;;;;;;7.70;6.00;;;;;;;31.00;44.79;99369.95;82099;1295;3012663;-65
2023/07/05 07:26:19;;;;;;;9.90;6.30;;;;;;;31.06;44.89;99368.08;82072;1294;3011312;-63
2023/07/05 07:28:49;;;;;;;9.80;5.80;;;;;;;31.08;44.55;99371.84;80840;1298;3053411;-63
2023/07/05 07:31:16;;;;;;;8.40;5.70;;;;;;;31.10;44.53;99369.02;82099;1294;3012581;-63
2023/07/05 07:33:45;;;;;;;13.20;6.00;;;;;;;31.18;43.75;99371.44;81570;1294;3011253;-62
2023/07/05 07:36:16;;;;;;;8.30;5.50;;;;;;;31.26;43.06;99372.89;82104;1294;3012392;-62
2023/07/05 07:38:44;;;;;;;7.60;5.80;;;;;;;31.31;43.26;99373.19;80851;1294;3052924;-63
2023/07/05 07:41:18;;;;;;;11.90;5.30;;;;;;;31.40;43.29;99371.02;82121;1294;3018032;-63
2023/07/05 07:43:46;;;;;;;12.60;5.90;;;;;;;31.51;42.80;99372.05;80852;1294;3052693;-62
2023/07/05 07:46:14;;;;;;;11.20;5.30;;;;;;;31.55;41.78;99366.88;82119;1294;3013153;-62
2023/07/05 07:48:42;;;;;;;8.10;4.80;;;;;;;31.62;41.07;99373.73;82093;1294;3011104;-62
2023/07/05 07:51:14;;;;;;;6.00;4.40;;;;;;;31.73;40.40;99377.36;80837;1294;3049327;-62
2023/07/05 07:53:41;;;;;;;6.80;4.60;;;;;;;31.86;39.68;99373.64;82111;1294;3012953;-63
2023/07/05 07:56:11;;;;;;;7.40;5.20;;;;;;;31.91;39.94;99374.13;82036;1294;3011419;-64
2023/07/05 07:58:41;;;;;;;5.90;4.70;;;;;;;32.00;39.61;99376.11;80857;1294;3052656;-64
2023/07/05 08:01:15;;;;;;;14.20;5.00;;;;;;;32.08;38.65;99374.64;82114;1294;3012727;-64
2023/07/05 08:03:43;;;;;;;11.20;4.40;;;;;;;32.12;38.60;99373.79;80825;1294;3057335;-64
2023/07/05 08:06:10;;;;;;;8.30;4.30;;;;;;;32.20;39.04;99372.02;82110;1294;3018199;-66
2023/07/05 08:08:38;;;;;;;11.50;5.20;;;;;;;32.23;38.96;99370.83;82091;1294;3011538;-63
2023/07/05 08:11:08;;;;;;;6.80;4.30;;;;;;;32.37;38.41;99368.09;80836;1294;3052245;-63
2023/07/05 08:13:35;;;;;;;5.50;4.00;;;;;;;32.42;36.78;99370.54;82123;1294;3012788;-63
2023/07/05 08:16:05;;;;;;;10.00;4.00;;;;;;;32.54;36.60;99360.94;81602;1293;3011365;-63
2023/07/05 08:18:32;;;;;;;6.20;3.60;;;;;;;32.66;34.92;99362.91;82137;1294;3011711;-62
2023/07/05 08:20:59;;;;;;;7.30;3.60;;;;;;;32.69;34.75;99358.27;82100;1294;3011768;-64
2023/07/05 08:23:28;;;;;;;6.10;3.30;;;;;;;32.72;34.74;99356.54;80816;1294;3053037;-63
2023/07/05 08:25:55;;;;;;;7.70;4.00;;;;;;;32.82;34.94;99351.83;82117;1294;3013281;-62
2023/07/05 08:28:22;;;;;;;12.20;4.20;;;;;;;32.90;34.44;99349.88;82098;1294;3011301;-63
2023/07/05 08:30:54;;;;;;;4.70;3.50;;;;;;;32.97;34.17;99345.10;80862;1294;3068259;-64
2023/07/05 08:33:22;;;;;;;6.30;3.90;;;;;;;33.07;33.52;99341.69;82091;1293;3011129;-64
2023/07/05 08:36:17;;;;;;;5.80;3.80;;;;;;;33.16;34.05;99345.50;80827;1293;3056014;-63
2023/07/05 08:38:49;;;;;;;5.30;3.60;;;;;;;33.24;33.22;99345.16;80735;1295;3049419;-62
2023/07/05 08:41:34;;;;;;;;;;;;;;;33.28;33.87;99347.48;82113;1294;3011114;-62
2023/07/05 08:44:02;;;;;;;12.00;4.20;;;;;;;33.25;34.39;99350.26;80842;1294;3049811;-64
2023/07/05 08:46:29;;;;;;;6.00;4.00;;;;;;;33.27;34.47;99345.77;82125;1294;3013259;-62
2023/07/05 08:49:14;;;;;;;6.70;4.20;;;;;;;33.26;34.32;99346.02;81963;1297;3011360;-64
2023/07/05 08:51:42;;;;;;;8.00;4.30;;;;;;;33.31;34.07;99343.76;80826;1294;3052003;-64
2023/07/05 08:54:11;;;;;;;11.10;4.10;;;;;;;33.33;33.81;99341.24;82092;1294;3012649;-64
2023/07/05 08:56:47;;;;;;;8.40;4.00;;;;;;;33.45;34.14;99335.30;80671;1295;3053755;-64
2023/07/05 08:59:25;;;;;;;7.40;3.70;;;;;;;33.53;34.71;99337.40;81920;1294;3011326;-63
2023/07/05 09:01:54;;;;;;;9.00;4.40;;;;;;;33.60;35.10;99339.08;80648;1297;3052918;-65
2023/07/05 09:04:32;;;;;;;5.90;3.70;;;;;;;33.62;35.53;99339.48;82106;1294;3011341;-64
2023/07/05 09:07:24;;;;;;;7.20;4.30;;;;;;;33.73;35.06;99334.86;80822;1294;3068455;-64
2023/07/05 09:10:18;;;;;;;8.30;4.70;;;;;;;33.76;34.63;99335.95;80854;1294;3052472;-63
2023/07/05 09:12:53;;;;;;;10.00;4.60;;;;;;;33.82;34.66;99337.27;80830;1294;3055586;-64
2023/07/05 09:15:34;;;;;;;10.40;4.30;;;;;;;33.88;35.47;99341.55;81968;1294;3011207;-63
2023/07/05 09:18:22;;;;;;;7.10;4.40;;;;;;;34.01;34.89;99341.79;80660;1295;3053421;-62
2023/07/05 09:21:00;;;;;;;8.50;3.90;;;;;;;34.08;34.94;99340.79;80648;1294;3041926;-64
2023/07/05 09:23:39;;;;;;;8.70;4.40;;;;;;;34.07;34.59;99339.64;80725;1297;3043136;-62
2023/07/05 09:26:11;;;;;;;6.50;4.30;;;;;;;33.96;34.90;99337.36;80743;1297;3045508;-63
2023/07/05 09:28:43;;;;;;;9.70;4.80;;;;;;;34.10;34.63;99336.95;81959;1297;3012416;-63
2023/07/05 09:31:11;;;;;;;9.40;4.10;;;;;;;34.18;34.72;99333.24;80656;1295;3042824;-64
2023/07/05 09:33:44;;;;;;;11.70;4.60;;;;;;;34.27;35.05;99333.46;82137;1293;3012332;-63
2023/07/05 09:36:21;;;;;;;7.40;4.40;;;;;;;34.37;34.62;99338.38;80714;1295;3044011;-63
2023/07/05 09:38:55;;;;;;;8.80;4.50;;;;;;;34.54;34.63;99340.66;80831;1294;3051539;-65
2023/07/05 09:41:34;;;;;;;6.00;4.00;;;;;;;34.69;34.22;99336.30;81935;1294;3011347;-63
2023/07/05 09:44:02;;;;;;;11.00;4.30;;;;;;;34.77;33.67;99336.50;80718;1296;3053503;-63
2023/07/05 09:46:33;;;;;;;8.50;4.30;;;;;;;34.82;33.76;99335.30;82104;1294;3011066;-63
2023/07/05 09:49:00;;;;;;;9.80;4.40;;;;;;;34.84;33.68;99337.64;80726;1295;3027228;-62
2023/07/05 09:51:27;;;;;;;6.30;3.50;;;;;;;35.04;33.15;99336.54;82143;1294;3018599;-65
2023/07/05 09:54:03;;;;;;;5.40;3.90;;;;;;;34.96;31.70;99334.82;82102;1294;3011202;-63
2023/07/05 09:56:32;;;;;;;5.00;3.80;;;;;;;35.07;32.29;99327.77;80832;1294;3049999;-63
2023/07/05 09:59:18;;;;;;;8.60;4.20;;;;;;;35.20;32.92;99331.06;82120;1294;3012790;-62
2023/07/05 10:01:49;;;;;;;11.50;4.10;;;;;;;35.32;33.01;99330.83;80850;1294;3069823;-62
2023/07/05 10:04:15;;;;;;;7.60;3.90;;;;;;;35.41;32.64;99336.13;81963;1294;3011335;-63
2023/07/05 10:06:46;;;;;;;5.00;3.70;;;;;;;35.41;32.26;99335.63;81602;1294;3011481;-65
2023/07/05 10:09:19;;;;;;;6.40;4.00;;;;;;;35.48;32.38;99334.49;82098;1294;3012439;-63
2023/07/05 10:11:50;;;;;;;9.30;3.70;;;;;;;35.59;31.79;99328.35;80837;1294;3050394;-65
2023/07/05 10:14:18;;;;;;;7.90;3.70;;;;;;;35.70;31.47;99331.86;82106;1294;3011326;-64
2023/07/05 10:16:52;;;;;;;6.80;3.50;;;;;;;35.86;31.10;99327.07;80865;1294;3026180;-63
2023/07/05 10:19:29;;;;;;;11.10;3.90;;;;;;;35.85;30.92;99324.16;81588;1294;3011380;-63
2023/07/05 10:22:33;;;;;;;5.90;3.60;;;;;;;35.82;30.81;99326.50;80833;1293;3069561;-63
2023/07/05 10:25:03;;;;;;;5.90;3.30;;;;;;;35.91;30.45;99327.00;80359;1301;3051757;-64
2023/07/05 10:27:32;;;;;;;13.90;3.70;;;;;;;36.03;29.79;99329.20;81903;1295;3011419;-61
2023/07/05 10:30:05;;;;;;;6.50;3.30;;;;;;;35.99;29.32;99322.08;80713;1295;3026090;-63
2023/07/05 10:32:32;;;;;;;11.20;3.70;;;;;;;36.06;29.31;99323.32;82117;1294;3011457;-63
2023/07/05 10:35:01;;;;;;;5.70;3.60;;;;;;;36.11;29.92;99325.58;80867;1294;3049864;-63
2023/07/05 10:37:31;;;;;;;5.50;3.70;;;;;;;36.22;29.72;99318.02;82103;1294;3018351;-64
2023/07/05 10:40:00;;;;;;;8.80;3.30;;;;;;;36.26;30.13;99320.73;80846;1294;3067442;-64
2023/07/05 10:42:27;;;;;;;8.50;3.80;;;;;;;36.27;30.12;99318.02;82013;1295;3013074;-63
2023/07/05 10:44:53;;;;;;;7.20;3.70;;;;;;;36.37;29.64;99323.38;81983;1293;3011378;-64
2023/07/05 10:47:21;;;;;;;12.70;4.00;;;;;;;36.39;29.31;99323.61;80823;1294;3053060;-64
2023/07/05 10:49:51;;;;;;;7.70;3.10;;;;;;;36.42;29.56;99324.27;81925;1297;3018357;-64
2023/07/05 10:52:21;;;;;;;5.50;2.90;;;;;;;36.50;29.16;99319.27;80669;1297;3053204;-63
2023/07/05 10:55:13;;;;;;;8.20;3.40;;;;;;;36.66;29.00;99312.91;82118;1293;3011477;-64
2023/07/05 10:57:43;;;;;;;7.10;3.30;;;;;;;36.66;28.81;99310.23;80730;1295;3055939;-64
2023/07/05 11:00:28;;;;;;;4.00;2.80;;;;;;;36.77;28.50;99309.55;82136;1293;3011214;-66
2023/07/05 11:03:10;;;;;;;6.20;3.30;;;;;;;36.76;28.32;99302.98;80869;1294;3052435;-62
2023/07/05 11:05:43;;;;;;;7.30;3.20;;;;;;;36.85;28.21;99304.60;80706;1294;3049932;-64
2023/07/05 11:08:17;;;;;;;8.10;3.40;;;;;;;37.01;27.99;99308.58;81972;1295;3011155;-63
2023/07/05 11:10:45;;;;;;;7.00;3.20;;;;;;;37.02;28.27;99303.93;80870;1294;3044487;-64
2023/07/05 11:13:15;;;;;;;11.90;3.40;;;;;;;36.98;28.58;99304.30;82029;1297;3018084;-63
2023/07/05 11:15:45;;;;;;;6.20;3.70;;;;;;;37.11;28.05;99305.52;81563;1294;3011497;-65
2023/07/05 11:18:19;;;;;;;7.70;3.40;;;;;;;37.22;27.81;99305.91;81961;1295;3012371;-62
2023/07/05 11:20:55;;;;;;;9.60;4.00;;;;;;;37.40;27.51;99304.02;80763;1294;3044520;-63
2023/07/05 11:23:42;;;;;;;6.80;3.10;;;;;;;37.54;27.34;99303.89;80866;1294;3039769;-63
2023/07/05 11:26:29;;;;;;;11.10;3.50;;;;;;;37.55;27.08;99306.68;80854;1294;3043210;-65
2023/07/05 11:28:57;;;;;;;7.30;3.70;;;;;;;37.46;27.27;99302.04;80863;1294;3043868;-62
2023/07/05 11:31:29;;;;;;;8.50;3.60;;;;;;;37.49;27.50;99300.39;82150;1294;3012483;-64
2023/07/05 11:34:25;;;;;;;9.90;3.40;;;;;;;37.54;27.77;99299.99;80825;1295;3047937;-63
2023/07/05 11:37:03;;;;;;;11.20;3.40;;;;;;;37.56;27.99;99298.08;80861;1294;3040049;-64
2023/07/05 11:39:41;;;;;;;6.10;3.60;;;;;;;37.68;27.88;99297.41;80826;1294;3043666;-65
2023/07/05 11:42:15;;;;;;;9.90;3.30;;;;;;;37.79;27.42;99290.17;80851;1294;3041596;-64
2023/07/05 11:44:49;;;;;;;4.90;3.70;;;;;;;37.81;27.44;99288.27;82116;1294;3011368;-65
2023/07/05 11:47:22;;;;;;;12.30;3.60;;;;;;;37.76;26.98;99285.02;80865;1294;3044323;-64
2023/07/05 11:49:54;;;;;;;8.00;3.20;;;;;;;37.71;27.17;99284.41;82118;1294;3012665;-66
2023/07/05 11:52:31;;;;;;;7.10;3.10;;;;;;;37.76;27.22;99281.63;80841;1293;3042944;-64
2023/07/05 11:55:19;;;;;;;7.40;3.70;;;;;;;37.94;27.26;99285.37;80843;1294;3046946;-64
2023/07/05 11:58:08;;;;;;;8.50;3.20;;;;;;;38.13;27.06;99288.10;80851;1293;3039782;-64
2023/07/05 12:00:41;;;;;;;9.70;3.80;;;;;;;38.15;27.18;99284.13;80826;1294;3044434;-63
2023/07/05 12:03:19;;;;;;;6.00;3.70;;;;;;;38.14;27.50;99281.30;81994;1293;3012724;-62
2023/07/05 12:06:02;;;;;;;9.30;3.70;;;;;;;38.19;27.50;99281.71;80710;1296;3044320;-63
2023/07/05 12:08:37;;;;;;;11.60;3.60;;;;;;;38.28;27.03;99281.04;80729;1297;3043872;-64
2023/07/05 12:11:10;;;;;;;15.60;3.80;;;;;;;38.31;27.29;99281.80;80720;1294;3058777;-63
2023/07/05 12:13:37;;;;;;;8.30;3.40;;;;;;;38.39;27.28;99285.75;82117;1293;3013663;-65
2023/07/05 12:16:06;;;;;;;14.60;4.00;;;;;;;38.55;26.65;99286.33;80842;1294;3047306;-62
2023/07/05 12:18:33;;;;;;;9.20;3.80;;;;;;;38.47;26.59;99282.76;82135;1294;3013001;-62
2023/07/05 12:21:03;;;;;;;9.00;4.00;;;;;;;38.53;26.56;99280.75;81991;1297;3012897;-64
2023/07/05 12:23:33;;;;;;;13.20;3.90;;;;;;;38.66;26.65;99276.95;80706;1296;3043359;-64
2023/07/05 12:26:01;;;;;;;9.50;3.70;;;;;;;38.76;26.82;99277.89;82023;1296;3012694;-65
2023/07/05 12:28:31;;;;;;;11.00;3.70;;;;;;;38.86;26.30;99275.58;80695;1293;3019403;-63
2023/07/05 12:31:01;;;;;;;15.30;4.00;;;;;;;39.00;26.40;99275.40;82130;1293;3013152;-64
2023/07/05 12:33:34;;;;;;;13.90;3.80;;;;;;;39.17;26.09;99270.78;80853;1293;3046961;-64
2023/07/05 12:36:05;;;;;;;10.70;3.80;;;;;;;39.14;26.13;99270.75;82134;1294;3012567;-63
2023/07/05 12:38:33;;;;;;;8.20;3.70;;;;;;;39.01;26.34;99267.71;80844;1294;3043577;-63
2023/07/05 12:41:00;;;;;;;10.80;3.80;;;;;;;39.09;25.78;99267.20;82004;1296;3018260;-63
2023/07/05 12:43:30;;;;;;;6.60;3.80;;;;;;;39.22;25.57;99266.30;82102;1294;3012384;-63
2023/07/05 12:46:21;;;;;;;10.70;3.70;;;;;;;39.33;25.44;99267.19;80860;1294;3060706;-64
2023/07/05 12:48:49;;;;;;;8.00;4.00;;;;;;;39.41;25.37;99263.70;80758;1294;3042551;-65
2023/07/05 12:51:21;;;;;;;14.20;4.20;;;;;;;39.41;25.57;99262.17;82129;1293;3013459;-63
2023/07/05 12:53:50;;;;;;;10.00;3.80;;;;;;;39.37;25.81;99262.21;80842;1294;3044374;-65
2023/07/05 12:56:22;;;;;;;9.30;3.80;;;;;;;39.36;25.76;99261.45;81976;1297;3013074;-65
2023/07/05 12:59:03;;;;;;;11.00;3.40;;;;;;;39.10;25.94;99262.38;80868;1294;3043563;-63
2023/07/05 13:01:35;;;;;;;14.40;3.80;;;;;;;39.03;25.97;99255.84;80741;1294;3060300;-63
2023/07/05 13:04:01;;;;;;;;;;;;;;;39.19;25.95;99256.38;82119;1294;3013067;-63
2023/07/05 13:06:29;;;;;;;9.60;3.90;;;;;;;39.26;26.12;99256.27;80882;1294;3017365;-64
2023/07/05 13:08:56;;;;;;;7.00;3.70;;;;;;;39.33;25.69;99250.77;81936;1293;3018086;-63
2023/07/05 13:11:26;;;;;;;8.80;3.30;;;;;;;39.59;24.91;99250.45;81955;1293;3012780;-64
2023/07/05 13:13:58;;;;;;;11.20;3.90;;;;;;;39.82;24.61;99251.71;80835;1294;3043326;-62
2023/07/05 13:16:30;;;;;;;9.00;4.10;;;;;;;39.93;24.51;99248.39;82120;1294;3012444;-63
2023/07/05 13:19:08;;;;;;;14.60;3.90;;;;;;;39.98;24.71;99246.30;80874;1293;3061352;-62
2023/07/05 13:21:43;;;;;;;10.30;3.40;;;;;;;40.00;24.71;99243.36;80850;1293;3042649;-63
2023/07/05 13:24:31;;;;;;;14.60;3.60;;;;;;;39.59;25.28;99241.45;81541;1294;3011190;-64
2023/07/05 13:27:00;;;;;;;13.70;3.90;;;;;;;39.09;25.95;99241.56;80848;1294;3047347;-62